createdAt,value
2022-09-15T00:00:50.321Z,84.10
2022-09-15T00:03:17.761Z,84.30
2022-09-15T00:05:45.118Z,84.10
2022-09-15T00:08:15.872Z,84.30
2022-09-15T00:11:15.005Z,84.30
2022-09-15T00:13:42.299Z,84.00
2022-09-15T00:16:14.621Z,84.30
2022-09-15T00:18:43.157Z,84.40
2022-09-15T00:21:12.817Z,84.40
2022-09-15T00:23:39.760Z,84.50
2022-09-15T00:26:11.506Z,84.50
2022-09-15T00:28:38.984Z,84.70
2022-09-15T00:31:08.610Z,84.80
2022-09-15T00:33:35.820Z,84.80
2022-09-15T00:36:05.159Z,84.80
2022-09-15T00:38:32.854Z,84.80
2022-09-15T00:41:01.609Z,84.90
2022-09-15T00:43:48.707Z,85.00
2022-09-15T00:46:17.780Z,84.70
2022-09-15T00:49:00.243Z,85.00
2022-09-15T00:51:35.986Z,85.00
2022-09-15T00:54:06.686Z,84.90
2022-09-15T00:56:34.964Z,85.00
2022-09-15T00:59:05.235Z,85.10
2022-09-15T01:01:38.104Z,85.20
2022-09-15T01:04:04.822Z,85.10
2022-09-15T01:06:39.026Z,85.10
2022-09-15T01:09:16.663Z,85.10
2022-09-15T01:11:43.758Z,85.20
2022-09-15T01:14:11.324Z,85.10
2022-09-15T01:17:04.206Z,85.80
2022-09-15T01:19:51.938Z,84.80
2022-09-15T01:22:39.565Z,84.90
2022-09-15T01:25:27.812Z,84.80
2022-09-15T01:28:57.329Z,85.00
2022-09-15T01:31:26.624Z,84.60
2022-09-15T01:34:13.231Z,85.10
2022-09-15T01:36:50.415Z,84.90
2022-09-15T01:39:25.531Z,85.00
2022-09-15T01:41:58.235Z,85.10
2022-09-15T01:44:44.755Z,85.00
2022-09-15T01:47:15.877Z,84.80
2022-09-15T01:49:56.807Z,84.90
2022-09-15T01:52:25.694Z,84.80
2022-09-15T01:54:56.660Z,85.00
2022-09-15T01:57:23.720Z,84.90
2022-09-15T01:59:52.181Z,85.00
2022-09-15T02:02:30.812Z,85.00
2022-09-15T02:05:18.080Z,85.10
2022-09-15T02:07:58.852Z,85.80
2022-09-15T02:10:57.607Z,85.10
2022-09-15T02:14:11.554Z,84.90
2022-09-15T02:16:45.303Z,84.90
2022-09-15T02:19:35.998Z,85.20
2022-09-15T02:22:24.210Z,84.90
2022-09-15T02:25:03.076Z,85.00
2022-09-15T02:27:33.739Z,85.30
2022-09-15T02:30:06.607Z,85.30
2022-09-15T02:32:36.849Z,85.40
2022-09-15T02:35:07.738Z,85.40
2022-09-15T02:37:36.563Z,85.40
2022-09-15T02:40:04.513Z,85.60
2022-09-15T02:42:32.511Z,85.80
2022-09-15T02:45:00.774Z,85.80
2022-09-15T02:47:32.107Z,85.90
2022-09-15T02:49:59.033Z,85.90
2022-09-15T02:52:26.175Z,85.90
2022-09-15T02:54:53.493Z,86.00
2022-09-15T02:57:20.970Z,86.00
2022-09-15T03:00:07.096Z,86.10
2022-09-15T03:02:34.134Z,86.10
2022-09-15T03:05:00.934Z,86.10
2022-09-15T03:07:28.583Z,86.00
2022-09-15T03:09:55.685Z,86.10
2022-09-15T03:12:22.477Z,86.00
2022-09-15T03:14:51.850Z,86.20
2022-09-15T03:17:22.049Z,86.30
2022-09-15T03:19:49.988Z,86.30
2022-09-15T03:22:16.624Z,86.20
2022-09-15T03:24:46.449Z,86.30
2022-09-15T03:27:13.182Z,86.30
2022-09-15T03:29:39.843Z,86.20
2022-09-15T03:32:06.526Z,86.10
2022-09-15T03:34:33.200Z,86.10
2022-09-15T03:36:59.970Z,86.10
2022-09-15T03:39:26.962Z,86.00
2022-09-15T03:41:54.049Z,86.00
2022-09-15T03:44:23.034Z,86.00
2022-09-15T03:46:49.702Z,86.00
2022-09-15T03:49:16.468Z,86.00
2022-09-15T03:51:43.249Z,86.10
2022-09-15T03:54:10.776Z,86.00
2022-09-15T03:56:51.843Z,86.00
2022-09-15T03:59:19.514Z,86.00
2022-09-15T04:01:48.360Z,85.90
2022-09-15T04:04:15.514Z,85.90
2022-09-15T04:06:42.307Z,86.00
2022-09-15T04:09:09.057Z,85.90
2022-09-15T04:11:36.362Z,85.90
2022-09-15T04:14:03.188Z,85.80
2022-09-15T04:16:30.212Z,85.70
2022-09-15T04:18:57.659Z,85.70
2022-09-15T04:21:26.788Z,85.70
2022-09-15T04:23:54.194Z,85.80
2022-09-15T04:26:28.271Z,85.70
2022-09-15T04:28:54.950Z,85.70
2022-09-15T04:31:21.778Z,85.60
2022-09-15T04:33:52.135Z,86.40
2022-09-15T04:36:21.648Z,85.60
2022-09-15T04:38:52.252Z,85.60
2022-09-15T04:41:19.901Z,85.60
2022-09-15T04:43:47.599Z,85.60
2022-09-15T04:46:15.644Z,85.60
2022-09-15T04:48:44.170Z,85.70
2022-09-15T04:51:13.387Z,85.70
2022-09-15T04:53:40.600Z,85.70
2022-09-15T04:56:12.899Z,85.80
2022-09-15T04:58:48.563Z,85.90
2022-09-15T05:01:29.585Z,85.80
2022-09-15T05:03:56.698Z,86.00
2022-09-15T05:06:25.784Z,86.00
2022-09-15T05:08:55.029Z,86.10
2022-09-15T05:11:22.402Z,86.20
2022-09-15T05:13:51.911Z,87.00
2022-09-15T05:16:26.905Z,86.20
2022-09-15T05:18:55.731Z,86.20
2022-09-15T05:21:24.198Z,86.20
2022-09-15T05:23:52.133Z,86.10
2022-09-15T05:26:21.752Z,86.00
2022-09-15T05:28:48.529Z,86.00
2022-09-15T05:31:24.079Z,85.90
2022-09-15T05:33:54.443Z,85.90
2022-09-15T05:36:25.337Z,85.90
2022-09-15T05:38:59.263Z,85.80
2022-09-15T05:41:27.542Z,85.90
2022-09-15T05:44:02.649Z,86.60
2022-09-15T05:46:30.179Z,85.80
2022-09-15T05:48:59.047Z,85.80
2022-09-15T05:51:27.751Z,85.90
2022-09-15T05:53:57.113Z,86.00
2022-09-15T05:56:23.970Z,86.00
2022-09-15T05:58:50.681Z,86.10
2022-09-15T06:01:23.756Z,86.10
2022-09-15T06:03:51.167Z,86.20
2022-09-15T06:06:18.670Z,86.20
2022-09-15T06:08:50.059Z,86.10
2022-09-15T06:11:22.409Z,86.10
2022-09-15T06:13:49.300Z,86.10
2022-09-15T06:16:19.546Z,86.10
2022-09-15T06:18:51.102Z,86.10
2022-09-15T06:21:26.628Z,86.00
2022-09-15T06:23:55.412Z,86.10
2022-09-15T06:26:25.049Z,86.20
2022-09-15T06:29:00.577Z,86.10
2022-09-15T06:31:32.422Z,86.20
2022-09-15T06:34:00.206Z,86.10
2022-09-15T06:36:33.397Z,86.00
2022-09-15T06:39:00.435Z,86.00
2022-09-15T06:41:35.350Z,85.80
2022-09-15T06:44:10.106Z,85.70
2022-09-15T06:46:36.878Z,85.60
2022-09-15T06:49:03.925Z,85.40
2022-09-15T06:51:35.452Z,85.10
2022-09-15T06:54:03.063Z,84.90
2022-09-15T06:56:31.694Z,84.90
2022-09-15T06:59:01.440Z,84.80
2022-09-15T07:01:30.541Z,84.80
2022-09-15T07:03:59.040Z,84.60
2022-09-15T07:06:29.653Z,84.50
2022-09-15T07:08:57.199Z,84.50
2022-09-15T07:11:24.470Z,84.40
2022-09-15T07:13:51.733Z,84.20
2022-09-15T07:16:19.542Z,84.10
2022-09-15T07:18:47.631Z,84.00
2022-09-15T07:21:17.560Z,83.70
2022-09-15T07:23:44.631Z,83.60
2022-09-15T07:26:21.256Z,83.60
2022-09-15T07:28:55.221Z,83.60
2022-09-15T07:31:24.433Z,83.40
2022-09-15T07:33:51.454Z,84.20
2022-09-15T07:36:19.031Z,83.30
2022-09-15T07:38:48.280Z,83.20
2022-09-15T07:41:38.251Z,83.00
2022-09-15T07:44:09.155Z,83.00
2022-09-15T07:46:36.404Z,82.90
2022-09-15T07:49:04.444Z,82.70
2022-09-15T07:51:33.519Z,82.60
2022-09-15T07:54:00.489Z,82.30
2022-09-15T07:56:27.428Z,82.10
2022-09-15T07:58:54.185Z,82.10
2022-09-15T08:01:22.644Z,81.80
2022-09-15T08:03:53.101Z,81.90
2022-09-15T08:06:25.002Z,81.90
2022-09-15T08:08:59.956Z,81.60
2022-09-15T08:11:30.735Z,81.30
2022-09-15T08:14:03.528Z,80.90
2022-09-15T08:16:31.014Z,80.70
2022-09-15T08:18:57.894Z,80.40
2022-09-15T08:21:24.680Z,80.20
2022-09-15T08:26:28.449Z,79.60
2022-09-15T08:28:55.414Z,79.50
2022-09-15T08:31:24.162Z,79.20
2022-09-15T08:33:53.382Z,79.20
2022-09-15T08:36:24.569Z,78.90
2022-09-15T08:38:54.335Z,78.80
2022-09-15T08:41:34.179Z,78.60
2022-09-15T08:44:30.975Z,78.40
2022-09-15T08:47:09.919Z,78.50
2022-09-15T08:49:51.501Z,78.30
2022-09-15T08:52:36.938Z,77.80
2022-09-15T08:55:12.569Z,77.60
2022-09-15T08:57:39.444Z,77.30
2022-09-15T09:00:13.485Z,77.30
2022-09-15T09:03:09.086Z,77.40
2022-09-15T09:05:41.892Z,77.30
2022-09-15T09:08:20.663Z,76.90
2022-09-15T09:11:08.731Z,76.50
2022-09-15T09:13:52.894Z,76.60
2022-09-15T09:16:32.942Z,76.50
2022-09-15T09:19:32.464Z,76.70
2022-09-15T09:22:07.491Z,76.80
2022-09-15T09:24:46.268Z,77.00
2022-09-15T09:27:19.095Z,76.90
2022-09-15T09:29:54.140Z,77.30
2022-09-15T09:32:27.445Z,77.30
2022-09-15T09:34:59.157Z,77.50
2022-09-15T09:37:25.898Z,77.50
2022-09-15T09:39:52.776Z,77.50
2022-09-15T09:42:20.140Z,77.50
2022-09-15T09:44:49.951Z,77.40
2022-09-15T09:47:17.205Z,76.90
2022-09-15T09:49:49.059Z,76.80
2022-09-15T09:52:37.164Z,76.70
2022-09-15T09:55:19.108Z,77.10
2022-09-15T09:57:45.831Z,77.00
2022-09-15T10:00:35.599Z,76.00
2022-09-15T10:03:28.026Z,75.30
2022-09-15T10:06:24.040Z,74.70
2022-09-15T10:09:09.475Z,74.70
2022-09-15T10:11:43.657Z,74.20
2022-09-15T10:14:31.614Z,74.30
2022-09-15T10:17:13.247Z,74.60
2022-09-15T10:19:42.983Z,74.80
2022-09-15T10:22:12.786Z,75.00
2022-09-15T10:24:40.279Z,75.40
2022-09-15T10:27:27.472Z,75.80
2022-09-15T10:29:55.053Z,75.60
2022-09-15T10:32:25.537Z,76.00
2022-09-15T10:35:06.182Z,76.30
2022-09-15T10:37:45.016Z,76.10
2022-09-15T10:40:42.443Z,76.30
2022-09-15T10:43:50.788Z,77.30
2022-09-15T10:46:44.888Z,76.50
2022-09-15T10:49:29.515Z,76.60
2022-09-15T10:52:28.980Z,76.70
2022-09-15T10:55:10.923Z,76.70
2022-09-15T10:57:49.941Z,76.80
2022-09-15T11:00:22.758Z,76.60
2022-09-15T11:03:12.316Z,76.40
2022-09-15T11:05:44.825Z,76.30
2022-09-15T11:08:31.894Z,76.40
2022-09-15T11:11:23.288Z,76.00
2022-09-15T11:14:04.732Z,75.70
2022-09-15T11:16:56.044Z,74.60
2022-09-15T11:19:44.348Z,74.80
2022-09-15T11:22:33.046Z,74.60
2022-09-15T11:25:03.906Z,74.20
2022-09-15T11:27:37.318Z,73.10
2022-09-15T11:30:06.580Z,72.80
2022-09-15T11:32:46.831Z,72.40
2022-09-15T11:35:23.029Z,71.90
2022-09-15T11:37:56.903Z,70.70
2022-09-15T11:40:36.955Z,70.20
2022-09-15T11:43:21.172Z,70.00
2022-09-15T11:45:57.991Z,70.30
2022-09-15T11:48:47.238Z,70.10
2022-09-15T11:51:17.165Z,70.10
2022-09-15T11:53:47.513Z,68.70
2022-09-15T11:56:47.397Z,68.60
2022-09-15T11:59:20.191Z,69.90
2022-09-15T12:02:12.133Z,68.20
2022-09-15T12:04:46.236Z,67.30
2022-09-15T12:07:18.670Z,67.20
2022-09-15T12:09:45.571Z,65.40
2022-09-15T12:12:23.086Z,64.40
2022-09-15T12:14:54.032Z,62.40
2022-09-15T12:17:31.881Z,62.80
2022-09-15T12:20:04.326Z,61.90
2022-09-15T12:22:37.395Z,60.90
2022-09-15T12:25:38.395Z,61.40
2022-09-15T12:28:23.179Z,62.00
2022-09-15T12:31:12.285Z,61.60
2022-09-15T12:34:06.825Z,61.40
2022-09-15T12:36:48.211Z,60.90
2022-09-15T12:39:34.354Z,61.10
2022-09-15T12:42:00.987Z,58.90
2022-09-15T12:44:47.739Z,58.20
2022-09-15T12:47:26.612Z,57.90
2022-09-15T12:49:57.211Z,58.20
2022-09-15T12:52:25.488Z,57.40
2022-09-15T12:55:26.837Z,57.60
2022-09-15T12:58:00.118Z,57.80
2022-09-15T13:00:33.643Z,56.60
2022-09-15T13:03:01.947Z,57.10
2022-09-15T13:05:46.127Z,55.40
2022-09-15T13:08:34.560Z,55.70
2022-09-15T13:11:05.605Z,54.90
2022-09-15T13:13:43.926Z,54.90
2022-09-15T13:16:48.714Z,54.70
2022-09-15T13:19:41.956Z,55.60
2022-09-15T13:22:11.689Z,55.90
2022-09-15T13:24:57.811Z,56.30
2022-09-15T13:27:36.395Z,56.00
2022-09-15T13:30:18.030Z,56.10
2022-09-15T13:33:26.618Z,56.30
2022-09-15T13:36:14.911Z,56.60
2022-09-15T13:38:59.752Z,56.80
2022-09-15T13:41:52.236Z,56.80
2022-09-15T13:44:26.723Z,56.70
2022-09-15T13:47:18.011Z,56.90
2022-09-15T13:49:53.409Z,57.10
2022-09-15T13:52:23.441Z,57.10
2022-09-15T13:55:10.354Z,56.80
2022-09-15T14:00:33.938Z,57.20
2022-09-15T14:03:09.753Z,57.20
2022-09-15T14:05:37.374Z,56.90
2022-09-15T14:08:11.665Z,56.80
2022-09-15T14:10:50.386Z,57.00
2022-09-15T14:13:21.991Z,57.10
2022-09-15T14:16:11.782Z,57.30
2022-09-15T14:18:44.328Z,57.40
2022-09-15T14:21:20.192Z,57.50
2022-09-15T14:23:48.752Z,57.20
2022-09-15T14:26:17.574Z,57.20
2022-09-15T14:28:57.237Z,57.30
2022-09-15T14:31:43.522Z,57.40
2022-09-15T14:34:26.333Z,57.70
2022-09-15T14:37:04.177Z,57.40
2022-09-15T14:39:32.031Z,57.20
2022-09-15T14:47:31.280Z,56.60
2022-09-15T14:50:20.464Z,56.80
2022-09-15T14:53:00.140Z,57.10
2022-09-15T14:55:52.004Z,56.70
2022-09-15T14:58:35.593Z,56.50
2022-09-15T15:01:15.700Z,56.50
2022-09-15T15:03:59.992Z,56.70
2022-09-15T15:06:35.101Z,56.80
2022-09-15T15:09:33.169Z,57.10
2022-09-15T15:12:05.219Z,57.20
2022-09-15T15:14:32.608Z,57.30
2022-09-15T15:17:02.417Z,57.40
2022-09-15T15:19:41.436Z,57.50
2022-09-15T15:22:19.950Z,57.50
2022-09-15T15:24:49.948Z,57.60
2022-09-15T15:27:32.486Z,57.80
2022-09-15T15:30:33.790Z,58.20
2022-09-15T15:33:02.125Z,57.90
2022-09-15T15:35:30.678Z,57.90
2022-09-15T15:38:07.793Z,57.90
2022-09-15T15:40:37.585Z,58.20
2022-09-15T15:43:07.908Z,58.20
2022-09-15T15:45:47.495Z,58.10
2022-09-15T15:48:14.269Z,58.20
2022-09-15T15:50:40.967Z,58.50
2022-09-15T15:53:07.664Z,59.10
2022-09-15T15:55:40.751Z,59.50
2022-09-15T15:58:09.520Z,59.90
2022-09-15T16:00:41.910Z,60.70
2022-09-15T16:03:09.226Z,60.00
2022-09-15T16:05:37.155Z,60.20
2022-09-15T16:08:10.641Z,60.50
2022-09-15T16:10:42.011Z,60.60
2022-09-15T16:13:12.880Z,60.40
2022-09-15T16:15:39.629Z,60.20
2022-09-15T16:18:06.387Z,60.30
2022-09-15T16:20:35.626Z,60.30
2022-09-15T16:23:05.909Z,60.40
2022-09-15T16:25:59.481Z,60.50
2022-09-15T16:28:26.562Z,61.40
2022-09-15T16:30:53.392Z,60.70
2022-09-15T16:33:20.191Z,60.80
2022-09-15T16:35:55.194Z,60.70
2022-09-15T16:38:25.522Z,60.80
2022-09-15T16:40:52.755Z,61.10
2022-09-15T16:43:21.609Z,61.10
2022-09-15T16:45:49.562Z,61.40
2022-09-15T16:48:16.758Z,61.50
2022-09-15T16:51:09.538Z,61.50
2022-09-15T16:53:31.099Z,61.70
2022-09-15T16:55:57.959Z,61.70
2022-09-15T16:58:24.770Z,62.00
2022-09-15T17:00:52.851Z,62.90
2022-09-15T17:03:21.776Z,63.10
2022-09-15T17:05:50.473Z,62.50
2022-09-15T17:08:19.292Z,62.50
2022-09-15T17:10:46.896Z,62.70
2022-09-15T17:13:23.087Z,62.90
2022-09-15T17:15:54.203Z,63.00
2022-09-15T17:18:21.991Z,63.00
2022-09-15T17:20:49.756Z,63.20
2022-09-15T17:23:21.187Z,63.20
2022-09-15T17:25:57.227Z,63.40
2022-09-15T17:28:26.619Z,63.40
2022-09-15T17:30:58.832Z,63.40
2022-09-15T17:33:25.816Z,63.20
2022-09-15T17:35:52.725Z,63.10
2022-09-15T17:38:23.143Z,63.10
2022-09-15T17:40:50.944Z,63.30
2022-09-15T17:43:20.231Z,63.30
2022-09-15T17:45:48.787Z,63.40
2022-09-15T17:48:16.446Z,63.40
2022-09-15T17:50:43.821Z,63.50
2022-09-15T17:53:14.323Z,63.60
2022-09-15T17:55:44.718Z,63.70
2022-09-15T17:58:12.267Z,63.80
2022-09-15T18:00:41.768Z,63.90
2022-09-15T18:03:20.220Z,64.00
2022-09-15T18:05:47.348Z,64.10
2022-09-15T18:08:14.300Z,64.20
2022-09-15T18:10:41.023Z,64.30
2022-09-15T18:13:13.308Z,64.30
2022-09-15T18:15:40.226Z,64.60
2022-09-15T18:18:09.114Z,64.60
2022-09-15T18:20:36.871Z,64.80
2022-09-15T18:23:03.570Z,65.00
2022-09-15T18:25:35.776Z,64.90
2022-09-15T18:28:03.586Z,65.20
2022-09-15T18:30:41.950Z,65.20
2022-09-15T18:33:18.376Z,65.40
2022-09-15T18:35:46.384Z,65.30
2022-09-15T18:38:13.486Z,65.50
2022-09-15T18:40:49.091Z,65.60
2022-09-15T18:43:19.882Z,65.80
2022-09-15T18:45:46.964Z,65.80
2022-09-15T18:48:13.774Z,65.90
2022-09-15T18:50:41.382Z,66.10
2022-09-15T18:53:08.789Z,66.30
2022-09-15T18:55:36.367Z,66.40
2022-09-15T18:58:03.128Z,66.30
2022-09-15T19:00:29.994Z,66.40
2022-09-15T19:03:01.766Z,66.50
2022-09-15T19:05:32.967Z,66.60
2022-09-15T19:08:02.723Z,66.60
2022-09-15T19:10:30.370Z,66.80
2022-09-15T19:12:57.319Z,66.90
2022-09-15T19:15:24.211Z,67.00
2022-09-15T19:17:51.240Z,67.20
2022-09-15T19:20:18.500Z,67.30
2022-09-15T19:22:46.048Z,67.20
2022-09-15T19:25:15.613Z,67.40
2022-09-15T19:27:43.254Z,67.30
2022-09-15T19:30:10.841Z,67.30
2022-09-15T19:32:39.269Z,67.40
2022-09-15T19:35:06.717Z,67.40
2022-09-15T19:37:36.922Z,67.40
2022-09-15T19:40:08.340Z,67.80
2022-09-15T19:42:36.112Z,67.30
2022-09-15T19:45:02.797Z,67.40
2022-09-15T19:47:29.711Z,67.40
2022-09-15T19:49:56.460Z,67.50
2022-09-15T19:52:23.314Z,67.60
2022-09-15T19:54:50.039Z,67.80
2022-09-15T19:57:16.920Z,67.70
2022-09-15T19:59:44.709Z,67.80
2022-09-15T20:02:12.162Z,68.00
2022-09-15T20:07:24.178Z,68.20
2022-09-15T20:09:53.450Z,68.30
2022-09-15T20:14:51.369Z,68.60
2022-09-15T20:17:18.234Z,68.90
2022-09-15T20:19:48.408Z,68.80
2022-09-15T20:22:15.095Z,69.20
2022-09-15T20:24:41.851Z,69.20
2022-09-15T20:27:16.140Z,69.30
2022-09-15T20:29:43.060Z,69.50
2022-09-15T20:32:09.802Z,69.60
2022-09-15T20:34:36.421Z,69.70
2022-09-15T20:37:03.359Z,69.80
2022-09-15T20:39:30.112Z,69.90
2022-09-15T20:41:57.718Z,70.00
2022-09-15T20:44:24.590Z,70.20
2022-09-15T20:46:52.600Z,70.30
2022-09-15T20:49:19.702Z,70.40
2022-09-15T20:51:46.410Z,70.40
2022-09-15T20:54:13.200Z,70.60
2022-09-15T20:56:39.924Z,70.60
2022-09-15T20:59:10.220Z,70.70
2022-09-15T21:01:38.688Z,70.80
2022-09-15T21:04:06.685Z,70.90
2022-09-15T21:06:35.001Z,70.90
2022-09-15T21:09:03.173Z,71.00
2022-09-15T21:16:54.045Z,72.00
2022-09-15T21:19:20.909Z,71.30
2022-09-15T21:21:52.347Z,71.50
2022-09-15T21:24:19.008Z,72.30
2022-09-15T21:27:04.227Z,71.50
2022-09-15T21:29:31.571Z,71.60
2022-09-15T21:31:58.931Z,71.70
2022-09-15T21:34:26.402Z,71.70
2022-09-15T21:36:53.723Z,71.80
2022-09-15T21:39:20.560Z,72.70
2022-09-15T21:41:47.308Z,71.90
2022-09-15T21:44:14.106Z,72.00
2022-09-15T21:46:40.986Z,71.90
2022-09-15T21:49:08.773Z,72.00
2022-09-15T21:51:36.320Z,72.00
2022-09-15T21:54:03.105Z,72.20
2022-09-15T21:56:30.141Z,72.20
2022-09-15T21:58:57.301Z,72.20
2022-09-15T22:01:29.241Z,72.10
2022-09-15T22:04:07.234Z,72.30
2022-09-15T22:06:41.606Z,72.30
2022-09-15T22:09:14.529Z,72.40
2022-09-15T22:11:41.600Z,72.40
2022-09-15T22:14:09.394Z,72.50
2022-09-15T22:16:41.589Z,72.60
2022-09-15T22:19:10.055Z,72.70
2022-09-15T22:21:41.933Z,72.80
2022-09-15T22:24:11.453Z,72.90
2022-09-15T22:26:38.727Z,73.00
2022-09-15T22:29:05.962Z,72.90
2022-09-15T22:31:33.241Z,73.00
2022-09-15T22:33:59.964Z,73.10
2022-09-15T22:36:30.146Z,73.10
2022-09-15T22:39:04.274Z,73.20
2022-09-15T22:41:37.100Z,73.20
2022-09-15T22:44:07.863Z,73.30
2022-09-15T22:46:35.122Z,73.30
2022-09-15T22:49:02.413Z,73.30
2022-09-15T22:51:29.197Z,73.30
2022-09-15T22:53:57.355Z,73.30
2022-09-15T22:56:26.749Z,73.40
2022-09-15T22:58:54.479Z,73.40
2022-09-15T23:01:23.763Z,73.50
2022-09-15T23:03:59.037Z,73.60
2022-09-15T23:06:29.033Z,73.60
2022-09-15T23:08:58.030Z,73.60
2022-09-15T23:11:28.012Z,73.60
2022-09-15T23:13:55.572Z,73.60
2022-09-15T23:16:24.302Z,73.60
2022-09-15T23:18:51.686Z,73.70
2022-09-15T23:21:19.361Z,73.70
2022-09-15T23:23:48.826Z,73.70
2022-09-15T23:26:19.506Z,73.70
2022-09-15T23:28:46.986Z,73.80
2022-09-15T23:31:14.061Z,73.80
2022-09-15T23:33:41.642Z,73.90
2022-09-15T23:36:11.877Z,73.90
2022-09-15T23:38:45.067Z,74.10
2022-09-15T23:41:12.799Z,74.10
2022-09-15T23:43:39.573Z,74.10
2022-09-15T23:46:07.029Z,74.10
2022-09-15T23:48:33.895Z,74.20
2022-09-15T23:51:01.130Z,74.20
2022-09-15T23:53:28.822Z,74.30
2022-09-15T23:55:55.572Z,74.40
2022-09-15T23:58:22.311Z,74.40
